sensor_id;sensor_type;location;lat;lon;timestamp;pressure;altitude;pressure_sealevel;temperature;humidity
18436;BME280;9346;52.006;4.720;2023-09-30T00:00:06;102391.78;;;14.68;100.00
18436;BME280;9346;52.006;4.720;2023-09-30T00:02:34;102392.59;;;14.68;100.00
18436;BME280;9346;52.006;4.720;2023-09-30T00:05:00;102392.34;;;14.70;100.00
18436;BME280;9346;52.006;4.720;2023-09-30T00:07:29;102394.03;;;14.71;100.00
18436;BME280;9346;52.006;4.720;2023-09-30T00:09:56;102394.03;;;14.71;100.00
18436;BME280;9346;52.006;4.720;2023-09-30T00:12:22;102394.03;;;14.71;100.00
18436;BME280;9346;52.006;4.720;2023-09-30T00:14:50;102392.94;;;14.72;100.00
18436;BME280;9346;52.006;4.720;2023-09-30T00:17:16;102399.31;;;14.72;100.00
18436;BME280;9346;52.006;4.720;2023-09-30T00:19:43;102412.09;;;14.73;100.00
18436;BME280;9346;52.006;4.720;2023-09-30T00:22:10;102414.59;;;14.75;100.00
18436;BME280;9346;52.006;4.720;2023-09-30T00:24:38;102410.72;;;14.76;100.00
18436;BME280;9346;52.006;4.720;2023-09-30T00:27:05;102406.84;;;14.77;100.00
18436;BME280;9346;52.006;4.720;2023-09-30T00:29:32;102411.56;;;14.76;100.00
18436;BME280;9346;52.006;4.720;2023-09-30T00:31:59;102405.16;;;14.76;100.00
18436;BME280;9346;52.006;4.720;2023-09-30T00:34:27;102402.38;;;14.76;100.00
18436;BME280;9346;52.006;4.720;2023-09-30T00:36:54;102399.59;;;14.76;100.00
18436;BME280;9346;52.006;4.720;2023-09-30T00:39:21;102398.53;;;14.77;100.00
18436;BME280;9346;52.006;4.720;2023-09-30T00:41:50;102398.53;;;14.77;100.00
18436;BME280;9346;52.006;4.720;2023-09-30T00:44:16;102399.59;;;14.76;100.00
18436;BME280;9346;52.006;4.720;2023-09-30T00:46:43;102417.94;;;14.77;100.00
18436;BME280;9346;52.006;4.720;2023-09-30T00:49:13;102428.47;;;14.75;100.00
18436;BME280;9346;52.006;4.720;2023-09-30T00:51:43;102441.47;;;14.74;100.00
18436;BME280;9346;52.006;4.720;2023-09-30T00:54:11;102426.78;;;14.74;100.00
18436;BME280;9346;52.006;4.720;2023-09-30T00:56:43;102424.56;;;14.76;100.00
18436;BME280;9346;52.006;4.720;2023-09-30T00:59:12;102421.50;;;14.72;100.00
18436;BME280;9346;52.006;4.720;2023-09-30T01:01:40;102422.59;;;14.71;100.00
18436;BME280;9346;52.006;4.720;2023-09-30T01:04:09;102427.59;;;14.69;100.00
18436;BME280;9346;52.006;4.720;2023-09-30T01:06:36;102440.88;;;14.67;100.00
18436;BME280;9346;52.006;4.720;2023-09-30T01:09:04;102456.66;;;14.67;100.00
18436;BME280;9346;52.006;4.720;2023-09-30T01:11:31;102455.00;;;14.66;100.00
18436;BME280;9346;52.006;4.720;2023-09-30T01:13:58;102443.91;;;14.66;100.00
18436;BME280;9346;52.006;4.720;2023-09-30T01:16:27;102445.56;;;14.67;100.00
18436;BME280;9346;52.006;4.720;2023-09-30T01:18:54;102441.13;;;14.66;100.00
18436;BME280;9346;52.006;4.720;2023-09-30T01:21:21;102447.53;;;14.66;100.00
18436;BME280;9346;52.006;4.720;2023-09-30T01:23:51;102444.75;;;14.66;100.00
18436;BME280;9346;52.006;4.720;2023-09-30T01:26:18;102443.09;;;14.65;100.00
18436;BME280;9346;52.006;4.720;2023-09-30T01:28:44;102435.84;;;14.64;100.00
18436;BME280;9346;52.006;4.720;2023-09-30T01:31:13;102436.69;;;14.65;100.00
18436;BME280;9346;52.006;4.720;2023-09-30T01:33:40;102438.06;;;14.62;100.00
18436;BME280;9346;52.006;4.720;2023-09-30T01:36:07;102432.78;;;14.61;100.00
18436;BME280;9346;52.006;4.720;2023-09-30T01:38:34;102442.19;;;14.60;100.00
18436;BME280;9346;52.006;4.720;2023-09-30T01:41:03;102444.41;;;14.58;100.00
18436;BME280;9346;52.006;4.720;2023-09-30T01:43:30;102437.16;;;14.57;100.00
18436;BME280;9346;52.006;4.720;2023-09-30T01:45:56;102431.88;;;14.55;100.00
18436;BME280;9346;52.006;4.720;2023-09-30T01:48:23;102435.75;;;14.54;100.00
18436;BME280;9346;52.006;4.720;2023-09-30T01:50:51;102441.56;;;14.53;100.00
18436;BME280;9346;52.006;4.720;2023-09-30T01:53:18;102437.94;;;14.52;100.00
18436;BME280;9346;52.006;4.720;2023-09-30T01:55:45;102433.50;;;14.51;100.00
18436;BME280;9346;52.006;4.720;2023-09-30T01:58:15;102444.84;;;14.50;100.00
18436;BME280;9346;52.006;4.720;2023-09-30T02:00:41;102444.03;;;14.49;100.00
18436;BME280;9346;52.006;4.720;2023-09-30T02:03:08;102438.50;;;14.49;100.00
18436;BME280;9346;52.006;4.720;2023-09-30T02:05:35;102450.41;;;14.50;100.00
18436;BME280;9346;52.006;4.720;2023-09-30T02:08:02;102446.53;;;14.51;100.00
18436;BME280;9346;52.006;4.720;2023-09-30T02:10:31;102443.78;;;14.51;100.00
18436;BME280;9346;52.006;4.720;2023-09-30T02:12:58;102451.50;;;14.49;100.00
18436;BME280;9346;52.006;4.720;2023-09-30T02:15:27;102451.44;;;14.44;100.00
18436;BME280;9346;52.006;4.720;2023-09-30T02:17:54;102448.09;;;14.42;100.00
18436;BME280;9346;52.006;4.720;2023-09-30T02:20:21;102450.56;;;14.38;100.00
18436;BME280;9346;52.006;4.720;2023-09-30T02:22:51;102433.63;;;14.35;100.00
18436;BME280;9346;52.006;4.720;2023-09-30T02:25:17;102427.22;;;14.34;100.00
18436;BME280;9346;52.006;4.720;2023-09-30T02:27:45;102426.13;;;14.35;100.00
18436;BME280;9346;52.006;4.720;2023-09-30T02:30:12;102448.03;;;14.37;100.00
18436;BME280;9346;52.006;4.720;2023-09-30T02:32:43;102440.88;;;14.41;100.00
18436;BME280;9346;52.006;4.720;2023-09-30T02:35:11;102430.63;;;14.41;100.00
18436;BME280;9346;52.006;4.720;2023-09-30T02:37:39;102423.72;;;14.44;100.00
18436;BME280;9346;52.006;4.720;2023-09-30T02:40:07;102418.75;;;14.46;100.00
18436;BME280;9346;52.006;4.720;2023-09-30T02:42:35;102428.72;;;14.47;100.00
18436;BME280;9346;52.006;4.720;2023-09-30T02:45:03;102430.44;;;14.48;100.00
18436;BME280;9346;52.006;4.720;2023-09-30T02:47:29;102423.78;;;14.49;100.00
18436;BME280;9346;52.006;4.720;2023-09-30T02:49:58;102432.09;;;14.49;100.00
18436;BME280;9346;52.006;4.720;2023-09-30T02:52:26;102443.78;;;14.51;100.00
18436;BME280;9346;52.006;4.720;2023-09-30T02:54:54;102442.66;;;14.52;100.00
18436;BME280;9346;52.006;4.720;2023-09-30T02:57:22;102438.78;;;14.53;100.00
18436;BME280;9346;52.006;4.720;2023-09-30T02:59:49;102430.19;;;14.54;100.00
18436;BME280;9346;52.006;4.720;2023-09-30T03:02:17;102421.63;;;14.56;100.00
18436;BME280;9346;52.006;4.720;2023-09-30T03:04:45;102420.25;;;14.58;100.00
18436;BME280;9346;52.006;4.720;2023-09-30T03:07:14;102427.16;;;14.56;100.00
18436;BME280;9346;52.006;4.720;2023-09-30T03:09:40;102425.50;;;14.55;100.00
18436;BME280;9346;52.006;4.720;2023-09-30T03:12:07;102433.25;;;14.53;100.00
18436;BME280;9346;52.006;4.720;2023-09-30T03:14:34;102430.47;;;14.53;100.00
18436;BME280;9346;52.006;4.720;2023-09-30T03:17:01;102430.97;;;14.50;100.00
18436;BME280;9346;52.006;4.720;2023-09-30T03:19:30;102439.31;;;14.50;100.00
18436;BME280;9346;52.006;4.720;2023-09-30T03:21:58;102431.56;;;14.52;100.00
18436;BME280;9346;52.006;4.720;2023-09-30T03:24:26;102429.63;;;14.52;100.00
18436;BME280;9346;52.006;4.720;2023-09-30T03:26:54;102422.41;;;14.51;100.00
18436;BME280;9346;52.006;4.720;2023-09-30T03:29:23;102434.09;;;14.53;100.00
18436;BME280;9346;52.006;4.720;2023-09-30T03:31:49;102445.19;;;14.53;100.00
18436;BME280;9346;52.006;4.720;2023-09-30T03:34:17;102438.25;;;14.56;100.00
18436;BME280;9346;52.006;4.720;2023-09-30T03:36:45;102439.91;;;14.57;100.00
18436;BME280;9346;52.006;4.720;2023-09-30T03:39:12;102430.53;;;14.58;100.00
18436;BME280;9346;52.006;4.720;2023-09-30T03:41:43;102426.66;;;14.59;100.00
18436;BME280;9346;52.006;4.720;2023-09-30T03:44:10;102433.84;;;14.60;100.00
18436;BME280;9346;52.006;4.720;2023-09-30T03:46:37;102435.56;;;14.61;100.00
18436;BME280;9346;52.006;4.720;2023-09-30T03:49:03;102431.66;;;14.62;100.00
18436;BME280;9346;52.006;4.720;2023-09-30T03:51:34;102434.19;;;14.63;100.00
18436;BME280;9346;52.006;4.720;2023-09-30T03:54:02;102432.81;;;14.66;100.00
18436;BME280;9346;52.006;4.720;2023-09-30T03:56:29;102425.34;;;14.66;100.00
18436;BME280;9346;52.006;4.720;2023-09-30T03:58:57;102426.47;;;14.70;100.00
18436;BME280;9346;52.006;4.720;2023-09-30T04:01:25;102429.25;;;14.70;100.00
18436;BME280;9346;52.006;4.720;2023-09-30T04:03:53;102439.50;;;14.70;100.00
18436;BME280;9346;52.006;4.720;2023-09-30T04:06:21;102441.72;;;14.68;100.00
18436;BME280;9346;52.006;4.720;2023-09-30T04:08:48;102443.38;;;14.69;100.00
18436;BME280;9346;52.006;4.720;2023-09-30T04:11:16;102440.59;;;14.69;100.00
18436;BME280;9346;52.006;4.720;2023-09-30T04:13:44;102428.94;;;14.67;100.00
18436;BME280;9346;52.006;4.720;2023-09-30T04:16:12;102427.84;;;14.68;100.00
18436;BME280;9346;52.006;4.720;2023-09-30T04:18:39;102428.66;;;14.68;100.00
18436;BME280;9346;52.006;4.720;2023-09-30T04:21:06;102424.81;;;14.69;100.00
18436;BME280;9346;52.006;4.720;2023-09-30T04:23:33;102432.28;;;14.69;100.00
18436;BME280;9346;52.006;4.720;2023-09-30T04:26:01;102435.91;;;14.69;100.00
18436;BME280;9346;52.006;4.720;2023-09-30T04:28:29;102433.13;;;14.69;100.00
18436;BME280;9346;52.006;4.720;2023-09-30T04:30:56;102447.25;;;14.68;100.00
18436;BME280;9346;52.006;4.720;2023-09-30T04:33:25;102447.81;;;14.70;100.00
18436;BME280;9346;52.006;4.720;2023-09-30T04:35:52;102453.38;;;14.70;100.00
18436;BME280;9346;52.006;4.720;2023-09-30T04:38:19;102448.41;;;14.72;100.00
18436;BME280;9346;52.006;4.720;2023-09-30T04:40:45;102459.75;;;14.70;100.00
18436;BME280;9346;52.006;4.720;2023-09-30T04:43:16;102458.34;;;14.68;100.00
18436;BME280;9346;52.006;4.720;2023-09-30T04:45:43;102454.13;;;14.60;100.00
18436;BME280;9346;52.006;4.720;2023-09-30T04:48:10;102460.53;;;14.66;100.00
18436;BME280;9346;52.006;4.720;2023-09-30T04:50:40;102466.97;;;14.71;100.00
18436;BME280;9346;52.006;4.720;2023-09-30T04:53:07;102454.78;;;14.72;100.00
18436;BME280;9346;52.006;4.720;2023-09-30T04:55:34;102451.75;;;14.74;100.00
18436;BME280;9346;52.006;4.720;2023-09-30T04:58:03;102458.97;;;14.75;100.00
18436;BME280;9346;52.006;4.720;2023-09-30T05:00:30;102451.50;;;14.75;100.00
18436;BME280;9346;52.006;4.720;2023-09-30T05:02:57;102456.19;;;14.75;100.00
18436;BME280;9346;52.006;4.720;2023-09-30T05:05:24;102467.28;;;14.75;100.00
18436;BME280;9346;52.006;4.720;2023-09-30T05:07:53;102461.75;;;14.75;100.00
18436;BME280;9346;52.006;4.720;2023-09-30T05:10:19;102471.72;;;14.76;100.00
18436;BME280;9346;52.006;4.720;2023-09-30T05:12:46;102450.66;;;14.75;100.00
18436;BME280;9346;52.006;4.720;2023-09-30T05:15:14;102454.28;;;14.75;100.00
18436;BME280;9346;52.006;4.720;2023-09-30T05:17:41;102463.41;;;14.76;100.00
18436;BME280;9346;52.006;4.720;2023-09-30T05:20:10;102470.06;;;14.75;100.00
18436;BME280;9346;52.006;4.720;2023-09-30T05:22:39;102471.72;;;14.76;100.00
18436;BME280;9346;52.006;4.720;2023-09-30T05:25:12;102456.19;;;14.75;100.00
18436;BME280;9346;52.006;4.720;2023-09-30T05:27:41;102461.75;;;14.75;100.00
18436;BME280;9346;52.006;4.720;2023-09-30T05:30:08;102462.00;;;14.73;100.00
18436;BME280;9346;52.006;4.720;2023-09-30T05:32:36;102468.06;;;14.70;100.00
18436;BME280;9346;52.006;4.720;2023-09-30T05:35:04;102465.56;;;14.69;100.00
18436;BME280;9346;52.006;4.720;2023-09-30T05:37:38;102468.59;;;14.67;100.00
18436;BME280;9346;52.006;4.720;2023-09-30T05:40:06;102464.69;;;14.63;100.00
18436;BME280;9346;52.006;4.720;2023-09-30T05:42:45;102460.44;;;14.56;100.00
18436;BME280;9346;52.006;4.720;2023-09-30T05:45:11;102469.81;;;14.50;100.00
18436;BME280;9346;52.006;4.720;2023-09-30T05:47:39;102469.75;;;14.45;100.00
18436;BME280;9346;52.006;4.720;2023-09-30T05:50:06;102480.00;;;14.44;100.00
18436;BME280;9346;52.006;4.720;2023-09-30T05:52:34;102481.13;;;14.43;100.00
18436;BME280;9346;52.006;4.720;2023-09-30T05:55:02;102480.19;;;14.38;100.00
18436;BME280;9346;52.006;4.720;2023-09-30T05:57:30;102479.91;;;14.34;100.00
18436;BME280;9346;52.006;4.720;2023-09-30T05:59:58;102482.94;;;14.33;100.00
18436;BME280;9346;52.006;4.720;2023-09-30T06:02:25;102485.13;;;14.31;100.00
18436;BME280;9346;52.006;4.720;2023-09-30T06:04:52;102483.44;;;14.30;100.00
18436;BME280;9346;52.006;4.720;2023-09-30T06:07:19;102481.44;;;14.25;100.00
18436;BME280;9346;52.006;4.720;2023-09-30T06:09:46;102480.03;;;14.23;100.00
18436;BME280;9346;52.006;4.720;2023-09-30T06:12:13;102471.38;;;14.19;100.00
18436;BME280;9346;52.006;4.720;2023-09-30T06:14:40;102481.63;;;14.19;100.00
18436;BME280;9346;52.006;4.720;2023-09-30T06:17:08;102486.91;;;14.20;100.00
18436;BME280;9346;52.006;4.720;2023-09-30T06:19:36;102481.38;;;14.20;100.00
18436;BME280;9346;52.006;4.720;2023-09-30T06:22:03;102486.06;;;14.20;100.00
18436;BME280;9346;52.006;4.720;2023-09-30T06:24:30;102486.31;;;14.18;100.00
18436;BME280;9346;52.006;4.720;2023-09-30T06:26:56;102502.69;;;14.20;100.00
18436;BME280;9346;52.006;4.720;2023-09-30T06:29:23;102505.97;;;14.17;100.00
18436;BME280;9346;52.006;4.720;2023-09-30T06:31:50;102511.53;;;14.17;100.00
18436;BME280;9346;52.006;4.720;2023-09-30T06:34:18;102524.53;;;14.16;100.00
18436;BME280;9346;52.006;4.720;2023-09-30T06:36:45;102518.72;;;14.18;100.00
18436;BME280;9346;52.006;4.720;2023-09-30T06:39:12;102531.00;;;14.22;100.00
18436;BME280;9346;52.006;4.720;2023-09-30T06:41:39;102531.00;;;14.22;100.00
18436;BME280;9346;52.006;4.720;2023-09-30T06:44:06;102533.53;;;14.23;100.00
18436;BME280;9346;52.006;4.720;2023-09-30T06:46:33;102535.47;;;14.23;100.00
18436;BME280;9346;52.006;4.720;2023-09-30T06:48:59;102528.56;;;14.25;100.00
18436;BME280;9346;52.006;4.720;2023-09-30T06:51:28;102534.13;;;14.25;100.00
18436;BME280;9346;52.006;4.720;2023-09-30T06:53:54;102533.59;;;14.28;100.00
18436;BME280;9346;52.006;4.720;2023-09-30T06:56:21;102545.03;;;14.32;100.00
18436;BME280;9346;52.006;4.720;2023-09-30T06:58:48;102544.25;;;14.36;100.00
18436;BME280;9346;52.006;4.720;2023-09-30T07:01:15;102549.25;;;14.39;100.00
18436;BME280;9346;52.006;4.720;2023-09-30T07:03:43;102552.88;;;14.40;100.00
18436;BME280;9346;52.006;4.720;2023-09-30T07:06:10;102550.94;;;14.40;100.00
18436;BME280;9346;52.006;4.720;2023-09-30T07:08:39;102553.47;;;14.42;100.00
18436;BME280;9346;52.006;4.720;2023-09-30T07:11:05;102564.28;;;14.43;100.00
18436;BME280;9346;52.006;4.720;2023-09-30T07:13:33;102566.28;;;14.48;100.00
18436;BME280;9346;52.006;4.720;2023-09-30T07:15:59;102575.75;;;14.52;100.00
18436;BME280;9346;52.006;4.720;2023-09-30T07:18:26;102575.81;;;14.57;100.00
18436;BME280;9346;52.006;4.720;2023-09-30T07:20:54;102573.09;;;14.62;100.00
18436;BME280;9346;52.006;4.720;2023-09-30T07:23:21;102578.19;;;14.70;100.00
18436;BME280;9346;52.006;4.720;2023-09-30T07:25:50;102577.13;;;14.76;100.00
18436;BME280;9346;52.006;4.720;2023-09-30T07:28:17;102580.81;;;14.81;100.00
18436;BME280;9346;52.006;4.720;2023-09-30T07:30:45;102591.97;;;14.86;100.00
18436;BME280;9346;52.006;4.720;2023-09-30T07:33:12;102583.72;;;14.91;100.00
18436;BME280;9346;52.006;4.720;2023-09-30T07:35:40;102585.97;;;14.94;100.00
18436;BME280;9346;52.006;4.720;2023-09-30T07:38:07;102593.47;;;14.99;100.00
18436;BME280;9346;52.006;4.720;2023-09-30T07:40:36;102597.44;;;15.03;100.00
18436;BME280;9346;52.006;4.720;2023-09-30T07:43:09;102599.69;;;15.06;100.00
18436;BME280;9346;52.006;4.720;2023-09-30T07:45:38;102584.19;;;15.10;100.00
18436;BME280;9346;52.006;4.720;2023-09-30T07:48:05;102586.16;;;15.14;100.00
18436;BME280;9346;52.006;4.720;2023-09-30T07:50:35;102591.50;;;15.21;100.00
18436;BME280;9346;52.006;4.720;2023-09-30T07:53:02;102593.47;;;15.25;100.00
18436;BME280;9346;52.006;4.720;2023-09-30T07:55:31;102583.84;;;15.33;100.00
18436;BME280;9346;52.006;4.720;2023-09-30T07:57:58;102585.88;;;15.37;100.00
18436;BME280;9346;52.006;4.720;2023-09-30T08:00:28;102580.34;;;15.42;100.00
18436;BME280;9346;52.006;4.720;2023-09-30T08:02:55;102575.94;;;15.46;100.00
18436;BME280;9346;52.006;4.720;2023-09-30T08:05:24;102563.47;;;15.49;100.00
18436;BME280;9346;52.006;4.720;2023-09-30T08:07:50;102564.34;;;15.54;100.00
18436;BME280;9346;52.006;4.720;2023-09-30T08:10:17;102558.84;;;15.59;100.00
18436;BME280;9346;52.006;4.720;2023-09-30T08:12:45;102553.28;;;15.64;100.00
18436;BME280;9346;52.006;4.720;2023-09-30T08:15:14;102554.47;;;15.69;100.00
18436;BME280;9346;52.006;4.720;2023-09-30T08:17:42;102561.44;;;15.76;100.00
18436;BME280;9346;52.006;4.720;2023-09-30T08:20:10;102570.09;;;15.80;100.00
18436;BME280;9346;52.006;4.720;2023-09-30T08:22:39;102568.16;;;15.85;100.00
18436;BME280;9346;52.006;4.720;2023-09-30T08:25:07;102571.81;;;15.91;100.00
18436;BME280;9346;52.006;4.720;2023-09-30T08:27:35;102570.47;;;15.93;100.00
18436;BME280;9346;52.006;4.720;2023-09-30T08:30:03;102564.91;;;15.98;100.00
18436;BME280;9346;52.006;4.720;2023-09-30T08:32:32;102563.25;;;16.02;100.00
18436;BME280;9346;52.006;4.720;2023-09-30T08:35:01;102559.13;;;16.05;100.00
18436;BME280;9346;52.006;4.720;2023-09-30T08:37:28;102561.09;;;16.09;100.00
18436;BME280;9346;52.006;4.720;2023-09-30T08:39:56;102566.69;;;16.14;100.00
18436;BME280;9346;52.006;4.720;2023-09-30T08:42:25;102570.03;;;16.21;100.00
18436;BME280;9346;52.006;4.720;2023-09-30T08:44:57;102573.97;;;16.25;100.00
18436;BME280;9346;52.006;4.720;2023-09-30T08:47:26;102573.13;;;16.30;100.00
18436;BME280;9346;52.006;4.720;2023-09-30T08:49:53;102590.13;;;16.33;100.00
18436;BME280;9346;52.006;4.720;2023-09-30T08:52:33;102594.63;;;16.39;100.00
18436;BME280;9346;52.006;4.720;2023-09-30T08:55:01;102599.66;;;16.42;100.00
18436;BME280;9346;52.006;4.720;2023-09-30T08:57:29;102611.06;;;16.46;100.00
18436;BME280;9346;52.006;4.720;2023-09-30T08:59:57;102607.22;;;16.52;100.00
18436;BME280;9346;52.006;4.720;2023-09-30T09:02:25;102603.91;;;16.55;100.00
18436;BME280;9346;52.006;4.720;2023-09-30T09:04:52;102615.59;;;16.62;100.00
18436;BME280;9346;52.006;4.720;2023-09-30T09:07:19;102619.28;;;16.67;100.00
18436;BME280;9346;52.006;4.720;2023-09-30T09:10:05;102622.63;;;16.74;100.00
18436;BME280;9346;52.006;4.720;2023-09-30T09:12:36;102630.44;;;16.77;100.00
18436;BME280;9346;52.006;4.720;2023-09-30T09:15:05;102636.31;;;16.86;100.00
18436;BME280;9346;52.006;4.720;2023-09-30T09:17:40;102645.53;;;16.96;100.00
18436;BME280;9346;52.006;4.720;2023-09-30T09:20:09;102652.50;;;17.04;100.00
18436;BME280;9346;52.006;4.720;2023-09-30T09:22:38;102644.16;;;17.09;100.00
18436;BME280;9346;52.006;4.720;2023-09-30T09:25:09;102634.72;;;17.15;100.00
18436;BME280;9346;52.006;4.720;2023-09-30T09:27:37;102621.94;;;17.24;100.00
18436;BME280;9346;52.006;4.720;2023-09-30T09:30:14;102620.53;;;17.31;100.00
18436;BME280;9346;52.006;4.720;2023-09-30T09:32:52;102626.13;;;17.36;100.00
18436;BME280;9346;52.006;4.720;2023-09-30T09:35:20;102623.94;;;17.43;100.00
18436;BME280;9346;52.006;4.720;2023-09-30T09:37:54;102624.75;;;17.49;100.00
18436;BME280;9346;52.006;4.720;2023-09-30T09:40:25;102617.53;;;17.53;100.00
18436;BME280;9346;52.006;4.720;2023-09-30T09:42:54;102623.38;;;17.56;100.00
18436;BME280;9346;52.006;4.720;2023-09-30T09:45:22;102616.69;;;17.62;100.00
18436;BME280;9346;52.006;4.720;2023-09-30T09:47:49;102612.50;;;17.70;100.00
18436;BME280;9346;52.006;4.720;2023-09-30T09:50:17;102612.22;;;17.82;100.00
18436;BME280;9346;52.006;4.720;2023-09-30T09:52:47;102611.38;;;17.86;100.00
18436;BME280;9346;52.006;4.720;2023-09-30T09:55:16;102614.44;;;17.95;100.00
18436;BME280;9346;52.006;4.720;2023-09-30T09:57:45;102619.47;;;18.03;100.00
18436;BME280;9346;52.006;4.720;2023-09-30T10:00:15;102612.19;;;18.12;100.00
18436;BME280;9346;52.006;4.720;2023-09-30T10:02:44;102606.03;;;18.20;100.00
18436;BME280;9346;52.006;4.720;2023-09-30T10:05:12;102603.50;;;18.28;100.00
18436;BME280;9346;52.006;4.720;2023-09-30T10:07:42;102593.72;;;18.36;100.00
18436;BME280;9346;52.006;4.720;2023-09-30T10:10:14;102587.03;;;18.42;100.00
18436;BME280;9346;52.006;4.720;2023-09-30T10:12:42;102579.47;;;18.42;100.00
18436;BME280;9346;52.006;4.720;2023-09-30T10:15:36;102577.50;;;18.48;100.00
18436;BME280;9346;52.006;4.720;2023-09-30T10:18:06;102570.25;;;18.52;100.00
18436;BME280;9346;52.006;4.720;2023-09-30T10:20:37;102573.28;;;18.55;100.00
18436;BME280;9346;52.006;4.720;2023-09-30T10:23:21;102570.78;;;18.59;100.00
18436;BME280;9346;52.006;4.720;2023-09-30T10:25:50;102561.25;;;18.60;100.00
18436;BME280;9346;52.006;4.720;2023-09-30T10:28:39;102575.22;;;18.65;100.00
18436;BME280;9346;52.006;4.720;2023-09-30T10:31:12;102569.00;;;18.73;100.00
18436;BME280;9346;52.006;4.720;2023-09-30T10:36:44;102563.25;;;19.03;100.00
18436;BME280;9346;52.006;4.720;2023-09-30T10:39:13;102557.91;;;19.06;100.00
18436;BME280;9346;52.006;4.720;2023-09-30T10:41:51;102563.50;;;19.06;100.00
18436;BME280;9346;52.006;4.720;2023-09-30T10:44:34;102556.47;;;19.14;100.00
18436;BME280;9346;52.006;4.720;2023-09-30T10:47:37;102558.91;;;19.25;100.00
18436;BME280;9346;52.006;4.720;2023-09-30T10:53:09;102560.19;;;19.43;100.00
18436;BME280;9346;52.006;4.720;2023-09-30T10:55:36;102564.63;;;19.44;100.00
18436;BME280;9346;52.006;4.720;2023-09-30T10:58:03;102563.28;;;19.41;100.00
18436;BME280;9346;52.006;4.720;2023-09-30T11:00:30;102560.75;;;19.40;100.00
18436;BME280;9346;52.006;4.720;2023-09-30T11:02:59;102564.63;;;19.44;100.00
18436;BME280;9346;52.006;4.720;2023-09-30T11:05:29;102561.34;;;19.37;100.00
18436;BME280;9346;52.006;4.720;2023-09-30T11:07:57;102567.56;;;19.29;100.00
18436;BME280;9346;52.006;4.720;2023-09-30T11:10:26;102559.78;;;19.26;100.00
18436;BME280;9346;52.006;4.720;2023-09-30T11:12:54;102561.69;;;19.25;100.00
18436;BME280;9346;52.006;4.720;2023-09-30T11:15:22;102553.03;;;19.22;100.00
18436;BME280;9346;52.006;4.720;2023-09-30T11:17:49;102536.63;;;19.15;100.00
18436;BME280;9346;52.006;4.720;2023-09-30T11:20:17;102529.66;;;19.13;100.00
18436;BME280;9346;52.006;4.720;2023-09-30T11:22:45;102525.19;;;19.12;100.00
18436;BME280;9346;52.006;4.720;2023-09-30T11:25:16;102529.13;;;19.11;100.00
18436;BME280;9346;52.006;4.720;2023-09-30T11:27:45;102533.56;;;19.12;100.00
18436;BME280;9346;52.006;4.720;2023-09-30T11:30:13;102537.22;;;19.12;100.00
18436;BME280;9346;52.006;4.720;2023-09-30T11:32:40;102544.44;;;19.13;100.00
18436;BME280;9346;52.006;4.720;2023-09-30T11:35:09;102546.97;;;19.15;100.00
18436;BME280;9346;52.006;4.720;2023-09-30T11:37:42;102547.22;;;19.18;100.00
18436;BME280;9346;52.006;4.720;2023-09-30T11:40:17;102551.94;;;19.23;100.00
18436;BME280;9346;52.006;4.720;2023-09-30T11:43:06;102549.66;;;19.25;100.00
18436;BME280;9346;52.006;4.720;2023-09-30T11:45:33;102547.72;;;19.30;100.00
18436;BME280;9346;52.006;4.720;2023-09-30T11:48:00;102551.53;;;19.39;100.00
18436;BME280;9346;52.006;4.720;2023-09-30T11:50:45;102549.78;;;19.48;100.00
18436;BME280;9346;52.006;4.720;2023-09-30T11:53:16;102548.31;;;19.56;100.00
18436;BME280;9346;52.006;4.720;2023-09-30T11:55:46;102537.06;;;19.66;100.00
18436;BME280;9346;52.006;4.720;2023-09-30T11:58:13;102532.81;;;19.68;100.00
18436;BME280;9346;52.006;4.720;2023-09-30T12:00:44;102517.97;;;19.73;100.00
18436;BME280;9346;52.006;4.720;2023-09-30T12:03:12;102508.09;;;19.80;100.00
18436;BME280;9346;52.006;4.720;2023-09-30T12:05:39;102512.81;;;19.85;100.00
18436;BME280;9346;52.006;4.720;2023-09-30T12:08:07;102522.56;;;19.87;100.00
18436;BME280;9346;52.006;4.720;2023-09-30T12:10:35;102515.31;;;19.86;100.00
18436;BME280;9346;52.006;4.720;2023-09-30T12:13:02;102507.22;;;19.85;100.00
18436;BME280;9346;52.006;4.720;2023-09-30T12:15:29;102507.75;;;19.87;100.00
18436;BME280;9346;52.006;4.720;2023-09-30T12:17:55;102508.53;;;19.92;100.00
18436;BME280;9346;52.006;4.720;2023-09-30T12:20:22;102502.66;;;19.94;100.00
18436;BME280;9346;52.006;4.720;2023-09-30T12:22:50;102505.44;;;19.94;100.00
18436;BME280;9346;52.006;4.720;2023-09-30T12:25:19;102514.97;;;19.93;100.00
18436;BME280;9346;52.006;4.720;2023-09-30T12:27:49;102513.53;;;19.96;100.00
18436;BME280;9346;52.006;4.720;2023-09-30T12:30:16;102509.91;;;19.95;100.00
18436;BME280;9346;52.006;4.720;2023-09-30T12:32:45;102512.66;;;20.00;100.00
18436;BME280;9346;52.006;4.720;2023-09-30T12:35:12;102505.63;;;20.03;100.00
18436;BME280;9346;52.006;4.720;2023-09-30T12:37:39;102508.41;;;20.03;100.00
18436;BME280;9346;52.006;4.720;2023-09-30T12:40:06;102503.66;;;20.03;100.00
18436;BME280;9346;52.006;4.720;2023-09-30T12:42:33;102505.91;;;20.01;100.00
18436;BME280;9346;52.006;4.720;2023-09-30T12:45:03;102514.91;;;19.98;100.00
18436;BME280;9346;52.006;4.720;2023-09-30T12:47:30;102517.69;;;19.98;100.00
18436;BME280;9346;52.006;4.720;2023-09-30T12:49:57;102511.56;;;19.96;100.00
18436;BME280;9346;52.006;4.720;2023-09-30T12:52:25;102511.03;;;19.94;100.00
18436;BME280;9346;52.006;4.720;2023-09-30T12:54:52;102493.13;;;19.95;100.00
18436;BME280;9346;52.006;4.720;2023-09-30T12:57:19;102501.28;;;19.92;100.00
18436;BME280;9346;52.006;4.720;2023-09-30T12:59:46;102501.00;;;19.93;100.00
18436;BME280;9346;52.006;4.720;2023-09-30T13:02:16;102509.06;;;19.94;100.00